createdAt,value
2024-03-26T00:04:46.367Z,8.9
2024-03-26T00:09:52.441Z,8.8
2024-03-26T00:14:58.490Z,8.8
2024-03-26T00:20:04.550Z,8.8
2024-03-26T00:25:10.672Z,8.7
2024-03-26T00:30:16.712Z,8.7
2024-03-26T00:35:22.766Z,8.7
2024-03-26T00:40:30.786Z,8.6
2024-03-26T00:45:36.792Z,8.6
2024-03-26T00:50:42.922Z,8.5
2024-03-26T00:55:48.944Z,8.5
2024-03-26T01:06:01.117Z,8.4
2024-03-26T01:11:07.141Z,8.4
2024-03-26T01:16:13.206Z,8.4
2024-03-26T01:21:22.857Z,8.3
2024-03-26T01:26:25.354Z,8.3
2024-03-26T01:36:37.496Z,8.2
2024-03-26T01:41:43.565Z,8.2
2024-03-26T01:46:49.634Z,8.2
2024-03-26T01:51:55.995Z,8.1
2024-03-26T01:57:01.811Z,8.1
2024-03-26T02:02:07.877Z,8.1
2024-03-26T02:07:13.895Z,8.1
2024-03-26T02:12:19.966Z,8
2024-03-26T02:17:26.109Z,8
2024-03-26T02:22:32.090Z,8
2024-03-26T02:27:38.235Z,8
2024-03-26T02:32:44.252Z,7.9
2024-03-26T02:42:56.431Z,7.9
2024-03-26T02:48:02.467Z,7.9
2024-03-26T02:53:08.539Z,7.8
2024-03-26T02:58:16.463Z,7.8
2024-03-26T03:03:24.394Z,7.8
2024-03-26T03:08:32.437Z,7.8
2024-03-26T03:13:40.289Z,7.8
2024-03-26T03:18:48.254Z,7.7
2024-03-26T03:23:56.175Z,7.7
2024-03-26T03:29:04.132Z,7.7
2024-03-26T03:34:12.072Z,7.7
2024-03-26T03:39:20.077Z,7.7
2024-03-26T03:44:27.959Z,7.7
2024-03-26T03:49:35.891Z,7.6
2024-03-26T03:54:43.880Z,7.6
2024-03-26T03:59:49.935Z,7.6
2024-03-26T04:04:55.989Z,7.6
2024-03-26T04:10:02.067Z,7.6
2024-03-26T04:15:08.148Z,7.6
2024-03-26T04:20:14.192Z,7.6
2024-03-26T04:30:26.392Z,7.5
2024-03-26T04:35:32.419Z,7.5
2024-03-26T04:40:38.530Z,7.5
2024-03-26T04:45:44.544Z,7.5
2024-03-26T04:50:50.793Z,7.5
2024-03-26T04:55:56.707Z,7.5
2024-03-26T05:01:02.759Z,7.5
2024-03-26T05:06:08.827Z,7.5
2024-03-26T05:11:14.882Z,7.5
2024-03-26T05:16:20.964Z,7.5
2024-03-26T05:21:27.086Z,7.4
2024-03-26T05:26:33.104Z,7.4
2024-03-26T05:31:39.174Z,7.4
2024-03-26T05:36:45.243Z,7.4
2024-03-26T05:41:53.219Z,7.4
2024-03-26T05:47:01.129Z,7.4
2024-03-26T05:52:09.081Z,7.4
2024-03-26T05:57:17.010Z,7.4
2024-03-26T06:02:25.037Z,7.4
2024-03-26T06:07:32.960Z,7.4
2024-03-26T06:12:40.853Z,7.4
2024-03-26T06:17:48.836Z,7.4
2024-03-26T06:22:56.745Z,7.3
2024-03-26T06:28:04.704Z,7.3
2024-03-26T06:33:12.932Z,7.3
2024-03-26T06:38:20.564Z,7.3
2024-03-26T06:48:36.532Z,7.3
2024-03-26T06:53:44.410Z,7.3
2024-03-26T06:58:52.419Z,7.3
2024-03-26T07:09:04.518Z,7.3
2024-03-26T07:14:10.554Z,7.4
2024-03-26T07:19:16.635Z,7.4
2024-03-26T07:24:22.765Z,7.4
2024-03-26T07:29:28.781Z,7.4
2024-03-26T07:34:37.131Z,7.4
2024-03-26T07:39:40.985Z,7.4
2024-03-26T07:44:47.024Z,7.4
2024-03-26T07:49:53.060Z,7.4
2024-03-26T07:54:59.178Z,7.4
2024-03-26T08:00:05.200Z,7.4
2024-03-26T08:05:11.301Z,7.5
2024-03-26T08:10:17.345Z,7.5
2024-03-26T08:15:23.479Z,7.5
2024-03-26T08:20:29.551Z,7.5
2024-03-26T08:25:35.537Z,7.5
2024-03-26T08:30:41.724Z,7.5
2024-03-26T08:35:47.735Z,7.5
2024-03-26T08:40:55.633Z,7.5
2024-03-26T08:46:01.770Z,7.6
2024-03-26T08:51:07.840Z,7.6
2024-03-26T08:56:23.671Z,7.6
2024-03-26T09:01:19.899Z,7.6
2024-03-26T09:06:26.044Z,7.6
2024-03-26T09:11:32.026Z,7.6
2024-03-26T09:16:38.122Z,7.6
2024-03-26T09:21:44.173Z,7.7
2024-03-26T09:26:50.294Z,7.7
2024-03-26T09:37:02.436Z,7.7
2024-03-26T09:42:08.515Z,7.7
2024-03-26T09:47:14.559Z,7.8
2024-03-26T09:52:20.605Z,7.8
2024-03-26T09:57:28.532Z,7.8
2024-03-26T10:02:36.478Z,7.9
2024-03-26T10:07:44.516Z,7.9
2024-03-26T10:12:52.382Z,7.9
2024-03-26T10:18:00.395Z,8
2024-03-26T10:23:08.252Z,8
2024-03-26T10:33:24.154Z,8.1
2024-03-26T10:38:32.085Z,8.2
2024-03-26T10:43:40.042Z,8.2
2024-03-26T10:48:57.211Z,8.3
2024-03-26T10:53:55.938Z,8.3
2024-03-26T10:59:03.874Z,8.4
2024-03-26T11:04:11.840Z,8.4
2024-03-26T11:09:19.787Z,8.5
2024-03-26T11:14:27.742Z,8.6
2024-03-26T11:19:35.675Z,8.6
2024-03-26T11:24:43.597Z,8.7
2024-03-26T11:29:51.536Z,8.7
2024-03-26T11:34:59.486Z,8.8
2024-03-26T11:40:07.447Z,8.8
2024-03-26T11:45:15.385Z,8.9
2024-03-26T11:50:23.621Z,9
2024-03-26T11:55:31.257Z,9
2024-03-26T12:00:39.217Z,9.1
2024-03-26T12:05:47.155Z,9.1
2024-03-26T12:10:55.098Z,9.2
2024-03-26T12:16:03.133Z,9.3
2024-03-26T12:21:11.004Z,9.4
2024-03-26T12:26:18.941Z,9.4
2024-03-26T12:31:26.929Z,9.5
2024-03-26T12:36:34.933Z,9.6
2024-03-26T12:41:42.778Z,9.7
2024-03-26T12:46:50.725Z,9.8
2024-03-26T12:51:58.702Z,9.8
2024-03-26T12:57:06.621Z,9.9
2024-03-26T13:02:14.538Z,10
2024-03-26T13:07:20.677Z,10.1
2024-03-26T13:12:26.699Z,10.2
2024-03-26T13:17:32.755Z,10.3
2024-03-26T13:22:38.817Z,10.4
2024-03-26T13:27:44.898Z,10.5
2024-03-26T13:32:50.968Z,10.6
2024-03-26T13:37:57.069Z,10.7
2024-03-26T13:43:03.112Z,10.8
2024-03-26T13:48:11.106Z,11
2024-03-26T13:53:17.092Z,11.1
2024-03-26T13:58:23.181Z,11.2
2024-03-26T14:03:29.236Z,11.3
2024-03-26T14:08:35.309Z,11.4
2024-03-26T14:13:41.380Z,11.5
2024-03-26T14:18:47.457Z,11.6
2024-03-26T14:28:59.638Z,11.8
2024-03-26T14:34:05.659Z,11.9
2024-03-26T14:39:11.759Z,11.9
2024-03-26T14:44:17.806Z,12
2024-03-26T14:54:33.681Z,12.2
2024-03-26T14:59:41.631Z,12.2
2024-03-26T15:04:49.566Z,12.3
2024-03-26T15:09:57.539Z,12.4
2024-03-26T15:15:05.484Z,12.5
2024-03-26T15:20:15.832Z,12.5
2024-03-26T15:25:21.314Z,12.6
2024-03-26T15:30:29.273Z,12.7
2024-03-26T15:35:37.196Z,12.8
2024-03-26T15:40:45.156Z,12.9
2024-03-26T15:45:53.119Z,12.9
2024-03-26T15:51:01.048Z,13
2024-03-26T15:56:07.116Z,13.1
2024-03-26T16:01:13.180Z,13.1
2024-03-26T16:06:19.248Z,13.2
2024-03-26T16:11:27.192Z,13.3
2024-03-26T16:16:33.320Z,13.3
2024-03-26T16:21:39.336Z,13.4
2024-03-26T16:26:45.417Z,13.4
2024-03-26T16:36:57.531Z,13.5
2024-03-26T16:42:03.602Z,13.5
2024-03-26T16:47:09.673Z,13.5
2024-03-26T16:52:15.718Z,13.5
2024-03-26T16:57:21.771Z,13.6
2024-03-26T17:02:28.079Z,13.6
2024-03-26T17:07:33.920Z,13.6
2024-03-26T17:12:39.965Z,13.6
2024-03-26T17:17:46.136Z,13.6
2024-03-26T17:22:54.005Z,13.5
2024-03-26T17:28:00.066Z,13.5
2024-03-26T17:33:06.143Z,13.5
2024-03-26T17:38:17.215Z,13.5
2024-03-26T17:48:24.359Z,13.4
2024-03-26T17:53:30.457Z,13.4
2024-03-26T17:58:36.495Z,13.3
2024-03-26T18:03:42.552Z,13.3
2024-03-26T18:08:48.610Z,13.3
2024-03-26T18:13:54.659Z,13.2
2024-03-26T18:19:00.791Z,13.2
2024-03-26T18:24:06.877Z,13.1
2024-03-26T18:29:12.908Z,13.1
2024-03-26T18:34:20.811Z,13.1
2024-03-26T18:39:26.871Z,13
2024-03-26T18:44:32.963Z,13
2024-03-26T18:49:39.036Z,12.9
2024-03-26T18:54:45.105Z,12.9
2024-03-26T18:59:53.067Z,12.8
2024-03-26T19:05:01.027Z,12.8
2024-03-26T19:10:08.944Z,12.8
2024-03-26T19:15:16.929Z,12.7
2024-03-26T19:20:24.824Z,12.7
2024-03-26T19:25:32.805Z,12.6
2024-03-26T19:30:40.725Z,12.6
2024-03-26T19:35:48.648Z,12.5
2024-03-26T19:40:56.668Z,12.5
2024-03-26T19:46:04.558Z,12.5
2024-03-26T19:56:20.428Z,12.4
2024-03-26T20:01:28.361Z,12.3
2024-03-26T20:06:36.312Z,12.3
2024-03-26T20:11:44.263Z,12.3
2024-03-26T20:16:52.208Z,12.2
2024-03-26T20:22:00.148Z,12.2
2024-03-26T20:27:08.069Z,12.2
2024-03-26T20:32:16.021Z,12.1
2024-03-26T20:37:23.957Z,12.1
2024-03-26T20:42:31.931Z,12
2024-03-26T20:47:39.841Z,12
2024-03-26T20:52:47.788Z,12
2024-03-26T20:57:55.735Z,11.9
2024-03-26T21:03:03.679Z,11.9
2024-03-26T21:08:11.639Z,11.9
2024-03-26T21:13:19.591Z,11.9
2024-03-26T21:18:27.578Z,11.8
2024-03-26T21:23:35.448Z,11.8
2024-03-26T21:28:43.416Z,11.8
2024-03-26T21:38:59.321Z,11.7
2024-03-26T21:44:07.237Z,11.7
2024-03-26T21:49:15.227Z,11.6
2024-03-26T21:54:23.163Z,11.6
2024-03-26T21:59:31.047Z,11.6
2024-03-26T22:04:39.030Z,11.5
2024-03-26T22:09:46.959Z,11.5
2024-03-26T22:14:54.899Z,11.5
2024-03-26T22:20:02.843Z,11.4
2024-03-26T22:25:10.833Z,11.4
2024-03-26T22:30:18.763Z,11.4
2024-03-26T22:35:26.663Z,11.3
2024-03-26T22:40:34.647Z,11.3
2024-03-26T22:45:42.585Z,11.3
2024-03-26T22:50:50.493Z,11.2
2024-03-26T22:55:58.445Z,11.2
2024-03-26T23:01:06.369Z,11.2
2024-03-26T23:06:14.355Z,11.2
2024-03-26T23:11:22.951Z,11.1
2024-03-26T23:16:30.251Z,11.1
2024-03-26T23:21:38.172Z,11.1
2024-03-26T23:26:46.107Z,11
2024-03-26T23:31:54.076Z,11
2024-03-26T23:37:02.063Z,11
2024-03-26T23:42:09.946Z,11
2024-03-26T23:47:17.966Z,10.9
2024-03-26T23:52:25.807Z,10.9
2024-03-26T23:57:33.803Z,10.9
